createdAt,value
2023-08-29T00:01:33.214Z,97657.11
2023-08-29T00:04:49.988Z,97664.39
2023-08-29T00:08:07.297Z,97668.42
2023-08-29T00:11:25.488Z,97667.34
2023-08-29T00:14:42.328Z,97678.11
2023-08-29T00:17:58.795Z,97681.31
2023-08-29T00:21:15.507Z,97692.90
2023-08-29T00:24:32.078Z,97701.25
2023-08-29T00:27:48.642Z,97737.31
2023-08-29T00:31:05.305Z,97823.87
2023-08-29T00:34:21.803Z,97791.63
2023-08-29T00:37:38.406Z,97830.88
2023-08-29T00:40:55.284Z,97804.56
2023-08-29T00:44:12.546Z,97814.53
2023-08-29T00:47:29.640Z,97790.31
2023-08-29T00:50:47.146Z,97776.56
2023-08-29T00:54:04.181Z,97752.34
2023-08-29T00:57:21.024Z,97748.04
2023-08-29T01:00:39.227Z,97742.66
2023-08-29T01:03:56.063Z,97738.63
2023-08-29T01:07:14.245Z,97729.45
2023-08-29T01:10:36.089Z,97734.31
2023-08-29T01:13:58.048Z,97731.63
2023-08-29T01:17:20.875Z,97738.86
2023-08-29T01:20:41.777Z,97726.77
2023-08-29T01:24:02.546Z,97732.41
2023-08-29T01:27:21.531Z,97715.48
2023-08-29T01:30:39.200Z,97724.06
2023-08-29T01:33:56.459Z,97720.86
2023-08-29T01:37:13.164Z,97723.27
2023-08-29T01:40:30.063Z,97723.79
2023-08-29T01:43:46.607Z,97721.65
2023-08-29T01:47:03.414Z,97717.89
2023-08-29T01:50:20.779Z,97722.44
2023-08-29T01:53:39.512Z,97722.16
2023-08-29T01:56:57.770Z,97707.10
2023-08-29T02:00:18.254Z,97707.93
2023-08-29T02:03:34.235Z,97714.92
2023-08-29T02:06:51.226Z,97697.17
2023-08-29T02:10:08.154Z,97701.20
2023-08-29T02:13:24.854Z,97706.85
2023-08-29T02:16:41.606Z,97707.09
2023-08-29T02:20:00.059Z,97694.48
2023-08-29T02:23:16.978Z,97691.80
2023-08-29T02:26:33.655Z,97707.38
2023-08-29T02:29:50.240Z,97717.05
2023-08-29T02:33:07.340Z,97708.42
2023-08-29T02:36:25.182Z,97705.73
2023-08-29T02:39:43.041Z,97700.08
2023-08-29T02:42:59.932Z,97693.63
2023-08-29T02:46:18.510Z,97710.25
2023-08-29T02:49:37.589Z,97706.97
2023-08-29T02:52:54.596Z,97702.94
2023-08-29T02:56:11.800Z,97714.74
2023-08-29T02:59:28.612Z,97717.41
2023-08-29T03:02:46.026Z,97717.09
2023-08-29T03:06:07.268Z,97711.45
2023-08-29T03:09:26.672Z,97710.10
2023-08-29T03:12:44.851Z,97692.88
2023-08-29T03:16:11.065Z,97691.75
2023-08-29T03:19:29.812Z,97711.08
2023-08-29T03:26:29.283Z,97710.19
2023-08-29T03:29:50.223Z,97729.50
2023-08-29T03:33:07.476Z,97728.67
2023-08-29T03:36:26.657Z,97722.78
2023-08-29T03:39:44.136Z,97714.96
2023-08-29T03:43:01.294Z,97727.05
2023-08-29T03:46:19.090Z,97713.11
2023-08-29T03:49:37.567Z,97706.09
2023-08-29T03:53:32.592Z,97697.50
2023-08-29T03:56:50.881Z,97718.68
2023-08-29T04:00:11.782Z,97733.72
2023-08-29T04:03:32.975Z,97716.56
2023-08-29T04:06:51.238Z,97711.01
2023-08-29T04:10:08.349Z,97711.83
2023-08-29T04:13:26.036Z,97713.16
2023-08-29T04:16:51.090Z,97718.80
2023-08-29T04:20:10.132Z,97731.95
2023-08-29T04:23:27.017Z,97731.92
2023-08-29T04:26:44.242Z,97726.31
2023-08-29T04:30:01.119Z,97726.61
2023-08-29T04:33:18.161Z,97724.98
2023-08-29T04:36:35.947Z,97723.36
2023-08-29T04:39:52.916Z,97712.13
2023-08-29T04:43:10.251Z,97705.44
2023-08-29T04:46:29.828Z,97714.83
2023-08-29T04:49:46.566Z,97722.30
2023-08-29T04:53:22.539Z,97730.27
2023-08-29T04:56:51.306Z,97709.59
2023-08-29T05:00:07.372Z,97702.61
2023-08-29T05:03:28.124Z,97698.94
2023-08-29T05:06:46.118Z,97706.75
2023-08-29T05:10:03.342Z,97716.16
2023-08-29T05:13:20.253Z,97714.83
2023-08-29T05:16:38.292Z,97724.48
2023-08-29T05:19:56.168Z,97718.27
2023-08-29T05:23:15.481Z,97718.58
2023-08-29T05:26:34.486Z,97712.19
2023-08-29T05:29:51.862Z,97688.89
2023-08-29T05:33:09.330Z,97691.91
2023-08-29T05:36:26.373Z,97706.91
2023-08-29T05:39:43.336Z,97699.41
2023-08-29T05:43:00.238Z,97697.84
2023-08-29T05:46:17.281Z,97701.33
2023-08-29T05:49:34.172Z,97708.88
2023-08-29T05:52:50.955Z,97701.87
2023-08-29T05:56:07.752Z,97694.09
2023-08-29T05:59:27.055Z,97688.75
2023-08-29T06:02:44.270Z,97699.52
2023-08-29T06:06:03.878Z,97706.00
2023-08-29T06:09:21.702Z,97715.41
2023-08-29T06:12:38.499Z,97711.66
2023-08-29T06:15:55.366Z,97729.44
2023-08-29T06:19:12.468Z,97739.70
2023-08-29T06:22:29.573Z,97738.66
2023-08-29T06:25:47.022Z,97754.27
2023-08-29T06:29:03.890Z,97768.27
2023-08-29T06:32:20.684Z,97749.16
2023-08-29T06:35:38.881Z,97731.34
2023-08-29T06:38:57.156Z,97728.36
2023-08-29T06:42:24.300Z,97728.52
2023-08-29T06:46:03.847Z,97732.14
2023-08-29T06:49:35.961Z,97717.42
2023-08-29T06:52:53.852Z,97713.71
2023-08-29T06:56:10.806Z,97712.13
2023-08-29T06:59:27.583Z,97687.86
2023-08-29T07:02:44.518Z,97685.97
2023-08-29T07:06:08.825Z,97698.20
2023-08-29T07:09:27.374Z,97689.86
2023-08-29T07:12:44.430Z,97699.67
2023-08-29T07:16:01.042Z,97721.20
2023-08-29T07:19:18.059Z,97719.70
2023-08-29T07:22:34.621Z,97719.58
2023-08-29T07:25:53.297Z,97728.98
2023-08-29T07:29:07.482Z,97745.14
2023-08-29T07:32:23.814Z,97748.80
2023-08-29T07:35:40.387Z,97763.59
2023-08-29T07:38:57.083Z,97757.00
2023-08-29T07:42:14.141Z,97767.52
2023-08-29T07:45:30.922Z,97750.50
2023-08-29T07:48:47.437Z,97751.24
2023-08-29T07:52:04.697Z,97759.48
2023-08-29T07:55:22.642Z,97769.99
2023-08-29T07:58:39.188Z,97773.76
2023-08-29T08:01:56.430Z,97777.05
2023-08-29T08:05:15.143Z,97785.09
2023-08-29T08:08:31.891Z,97788.09
2023-08-29T08:11:48.533Z,97784.40
2023-08-29T08:15:06.508Z,97775.63
2023-08-29T08:18:23.835Z,97777.27
2023-08-29T08:21:40.459Z,97767.83
2023-08-29T08:24:57.005Z,97772.73
2023-08-29T08:28:15.691Z,97787.34
2023-08-29T08:31:32.421Z,97782.38
2023-08-29T08:34:49.043Z,97778.05
2023-08-29T08:38:07.500Z,97781.26
2023-08-29T08:41:26.923Z,97756.94
2023-08-29T08:44:44.644Z,97754.06
2023-08-29T08:48:02.078Z,97764.78
2023-08-29T08:51:23.272Z,97760.28
2023-08-29T08:54:40.229Z,97763.67
2023-08-29T08:57:57.165Z,97760.77
2023-08-29T09:01:13.959Z,97753.35
2023-08-29T09:04:30.737Z,97760.72
2023-08-29T09:07:49.852Z,97752.88
2023-08-29T09:11:10.831Z,97749.86
2023-08-29T09:14:27.578Z,97735.40
2023-08-29T09:17:44.145Z,97740.00
2023-08-29T09:21:02.826Z,97736.41
2023-08-29T09:24:22.104Z,97728.97
2023-08-29T09:27:41.443Z,97729.39
2023-08-29T09:30:58.196Z,97731.25
2023-08-29T09:34:14.985Z,97731.59
2023-08-29T09:37:31.638Z,97742.14
2023-08-29T09:40:58.291Z,97754.52
2023-08-29T09:44:21.555Z,97750.99
2023-08-29T09:47:41.721Z,97750.67
2023-08-29T09:50:59.883Z,97749.73
2023-08-29T09:54:19.983Z,97757.56
2023-08-29T09:57:39.212Z,97761.83
2023-08-29T10:00:58.351Z,97757.65
2023-08-29T10:04:25.642Z,97763.98
2023-08-29T10:07:46.854Z,97761.98
2023-08-29T10:11:04.929Z,97767.88
2023-08-29T10:14:22.787Z,97767.27
2023-08-29T10:17:41.590Z,97772.39
2023-08-29T10:21:01.169Z,97778.69
2023-08-29T10:24:20.171Z,97756.03
2023-08-29T10:27:36.857Z,97743.70
2023-08-29T10:30:56.968Z,97755.23
2023-08-29T10:34:14.042Z,97761.81
2023-08-29T10:37:31.813Z,97752.43
2023-08-29T10:40:48.609Z,97754.71
2023-08-29T10:44:45.586Z,97752.95
2023-08-29T10:48:04.816Z,97765.97
2023-08-29T10:51:24.569Z,97770.44
2023-08-29T10:54:41.212Z,97770.87
2023-08-29T10:58:00.563Z,97761.28
2023-08-29T11:01:32.952Z,97761.34
2023-08-29T11:08:28.129Z,97743.42
2023-08-29T11:11:45.175Z,97745.50
2023-08-29T11:15:02.864Z,97752.63
2023-08-29T11:18:37.533Z,97755.94
2023-08-29T11:21:56.258Z,97738.45
2023-08-29T11:25:15.232Z,97748.67
2023-08-29T11:28:31.941Z,97747.38
2023-08-29T11:31:52.470Z,97757.83
2023-08-29T11:35:09.296Z,97764.25
2023-08-29T11:38:25.939Z,97781.18
2023-08-29T11:42:13.922Z,97798.02
2023-08-29T11:45:28.131Z,97801.17
2023-08-29T11:48:23.834Z,97774.23
2023-08-29T11:51:41.088Z,97742.38
2023-08-29T11:54:59.470Z,97734.86
2023-08-29T11:58:14.285Z,97763.41
2023-08-29T12:01:31.225Z,97756.17
2023-08-29T12:04:52.757Z,97755.23
2023-08-29T12:08:09.344Z,97765.03
2023-08-29T12:11:26.863Z,97768.34
2023-08-29T12:15:03.859Z,97772.55
2023-08-29T12:18:31.240Z,97765.09
2023-08-29T12:21:47.917Z,97752.45
2023-08-29T12:25:05.246Z,97749.96
2023-08-29T12:28:21.801Z,97744.17
2023-08-29T12:31:38.330Z,97745.17
2023-08-29T12:34:57.012Z,97747.48
2023-08-29T12:38:14.781Z,97742.48
2023-08-29T12:41:31.812Z,97741.00
2023-08-29T12:44:48.544Z,97741.22
2023-08-29T12:48:05.817Z,97746.25
2023-08-29T12:51:22.738Z,97729.89
2023-08-29T12:54:40.506Z,97723.66
2023-08-29T12:57:57.206Z,97714.31
2023-08-29T13:01:15.395Z,97715.98
2023-08-29T13:04:29.957Z,97711.47
2023-08-29T13:12:43.760Z,97726.44
2023-08-29T13:38:51.830Z,97709.92
2023-08-29T13:42:10.303Z,97720.70
2023-08-29T13:45:26.155Z,97715.98
2023-08-29T13:48:42.447Z,97708.88
2023-08-29T13:52:01.600Z,97696.13
2023-08-29T13:55:18.751Z,97734.20
2023-08-29T13:58:35.385Z,97785.36
2023-08-29T14:01:51.983Z,97778.63
2023-08-29T14:05:08.821Z,97725.79
2023-08-29T14:08:25.406Z,97738.13
2023-08-29T14:11:41.922Z,97769.02
2023-08-29T14:14:58.465Z,97755.47
2023-08-29T14:18:15.552Z,97755.56
2023-08-29T14:21:32.258Z,97747.53
2023-08-29T14:24:49.056Z,97757.84
2023-08-29T14:28:08.767Z,97741.69
2023-08-29T14:31:29.433Z,97727.27
2023-08-29T14:34:46.040Z,97738.52
2023-08-29T14:38:03.054Z,97747.44
2023-08-29T14:41:20.872Z,97753.46
2023-08-29T14:44:40.910Z,97757.75
2023-08-29T14:48:00.609Z,97754.25
2023-08-29T14:51:17.860Z,97744.91
2023-08-29T14:54:34.537Z,97735.48
2023-08-29T14:57:51.162Z,97746.09
2023-08-29T15:01:09.234Z,97743.42
2023-08-29T15:04:28.348Z,97727.67
2023-08-29T15:07:45.213Z,97723.36
2023-08-29T15:11:04.485Z,97730.98
2023-08-29T15:14:21.080Z,97742.66
2023-08-29T15:17:37.978Z,97740.47
2023-08-29T15:20:55.461Z,97732.59
2023-08-29T15:24:12.824Z,97720.64
2023-08-29T15:27:29.309Z,97716.59
2023-08-29T15:30:46.108Z,97712.88
2023-08-29T15:34:02.896Z,97705.06
2023-08-29T15:37:19.503Z,97703.75
2023-08-29T15:40:36.133Z,97704.24
2023-08-29T15:43:53.192Z,97702.14
2023-08-29T15:47:10.197Z,97713.76
2023-08-29T15:50:26.958Z,97705.59
2023-08-29T15:53:43.594Z,97705.67
2023-08-29T15:57:01.799Z,97713.56
2023-08-29T16:00:21.976Z,97703.69
2023-08-29T16:03:38.546Z,97708.73
2023-08-29T16:06:55.565Z,97710.05
2023-08-29T16:10:15.588Z,97709.03
2023-08-29T16:13:32.746Z,97713.31
2023-08-29T16:16:52.181Z,97719.25
2023-08-29T16:20:10.478Z,97717.94
2023-08-29T16:23:27.165Z,97702.54
2023-08-29T16:26:43.762Z,97703.43
2023-08-29T16:30:04.267Z,97700.77
2023-08-29T16:33:20.818Z,97702.67
2023-08-29T16:36:37.492Z,97705.61
2023-08-29T16:39:54.125Z,97712.63
2023-08-29T16:43:11.034Z,97717.22
2023-08-29T16:46:27.757Z,97706.77
2023-08-29T16:49:44.721Z,97714.84
2023-08-29T16:53:06.221Z,97703.27
2023-08-29T16:56:22.857Z,97701.16
2023-08-29T16:59:56.004Z,97702.55
2023-08-29T17:06:47.477Z,97706.95
2023-08-29T17:10:05.628Z,97707.01
2023-08-29T17:13:22.301Z,97710.27
2023-08-29T17:16:42.498Z,97708.20
2023-08-29T17:19:59.886Z,97715.28
2023-08-29T17:23:16.853Z,97715.01
2023-08-29T17:26:33.345Z,97710.75
2023-08-29T17:29:50.016Z,97703.55
2023-08-29T17:33:06.810Z,97703.11
2023-08-29T17:36:23.383Z,97715.52
2023-08-29T17:39:40.092Z,97726.58
2023-08-29T17:43:03.888Z,97735.21
2023-08-29T17:46:19.398Z,97738.69
2023-08-29T17:49:36.122Z,97743.51
2023-08-29T17:52:52.820Z,97733.55
2023-08-29T18:00:21.084Z,97720.59
2023-08-29T18:03:37.955Z,97708.22
2023-08-29T18:06:54.690Z,97699.59
2023-08-29T18:10:48.392Z,97700.94
2023-08-29T18:18:56.570Z,97717.16
2023-08-29T18:22:14.311Z,97709.73
2023-08-29T18:25:31.921Z,97714.59
2023-08-29T18:28:48.595Z,97709.74
2023-08-29T18:32:05.356Z,97703.84
2023-08-29T18:35:22.592Z,97712.23
2023-08-29T18:38:39.496Z,97706.59
2023-08-29T18:41:56.195Z,97712.48
2023-08-29T18:45:14.337Z,97701.98
2023-08-29T18:48:31.573Z,97692.56
2023-08-29T18:51:48.130Z,97689.66
2023-08-29T18:55:05.366Z,97681.28
2023-08-29T18:58:22.061Z,97675.64
2023-08-29T19:01:39.120Z,97678.91
2023-08-29T19:04:55.787Z,97687.55
2023-08-29T19:08:13.065Z,97671.70
2023-08-29T19:11:29.644Z,97680.08
2023-08-29T19:14:48.279Z,97676.80
2023-08-29T19:18:05.331Z,97685.69
2023-08-29T19:21:27.076Z,97688.39
2023-08-29T19:28:29.125Z,97688.21
2023-08-29T19:31:52.878Z,97699.00
2023-08-29T19:35:52.624Z,97689.28
2023-08-29T19:39:21.454Z,97683.56
2023-08-29T19:42:43.596Z,97685.73
2023-08-29T19:46:10.821Z,97696.88
2023-08-29T19:49:45.476Z,97685.55
2023-08-29T19:53:05.370Z,97667.50
2023-08-29T19:56:25.581Z,97678.03
2023-08-29T19:59:42.350Z,97692.37
2023-08-29T20:02:59.018Z,97692.40
2023-08-29T20:06:18.032Z,97693.22
2023-08-29T20:09:40.598Z,97702.92
2023-08-29T20:12:57.546Z,97713.73
2023-08-29T20:16:16.067Z,97723.17
2023-08-29T20:19:32.146Z,97733.70
2023-08-29T20:22:48.534Z,97728.84
2023-08-29T20:26:09.077Z,97726.15
2023-08-29T20:29:26.183Z,97734.77
2023-08-29T20:32:42.962Z,97731.27
2023-08-29T20:35:59.612Z,97734.75
2023-08-29T20:39:16.650Z,97736.39
2023-08-29T20:42:33.279Z,97729.89
2023-08-29T20:45:51.252Z,97723.48
2023-08-29T20:49:08.076Z,97714.06
2023-08-29T20:52:26.789Z,97707.08
2023-08-29T20:55:45.783Z,97694.42
2023-08-29T20:59:05.409Z,97673.14
2023-08-29T21:02:35.272Z,97662.09
2023-08-29T21:05:59.177Z,97650.81
2023-08-29T21:09:16.383Z,97640.03
2023-08-29T21:12:35.652Z,97642.16
2023-08-29T21:15:54.883Z,97650.27
2023-08-29T21:19:11.658Z,97646.23
2023-08-29T21:22:28.399Z,97643.54
2023-08-29T21:25:46.766Z,97643.28
2023-08-29T21:29:03.619Z,97640.05
2023-08-29T21:32:20.260Z,97643.84
2023-08-29T21:41:55.447Z,97661.91
2023-08-29T21:45:13.327Z,97662.44
2023-08-29T21:48:32.072Z,97671.88
2023-08-29T21:51:48.608Z,97671.08
2023-08-29T21:55:05.226Z,97675.09
2023-08-29T21:58:21.953Z,97665.92
2023-08-29T22:01:38.653Z,97673.44
2023-08-29T22:04:57.278Z,97673.98
2023-08-29T22:08:14.534Z,97677.23
2023-08-29T22:11:31.164Z,97679.65
2023-08-29T22:14:47.693Z,97683.70
2023-08-29T22:18:05.433Z,97682.08
2023-08-29T22:21:21.983Z,97682.88
2023-08-29T22:24:38.533Z,97683.16
2023-08-29T22:27:55.201Z,97683.97
2023-08-29T22:31:13.292Z,97677.23
2023-08-29T22:34:29.993Z,97679.94
2023-08-29T22:37:46.662Z,97682.91
2023-08-29T22:41:24.870Z,97685.08
2023-08-29T22:44:30.435Z,97683.19
2023-08-29T22:47:47.392Z,97676.20
2023-08-29T22:51:03.987Z,97678.31
2023-08-29T22:54:20.646Z,97678.84
2023-08-29T22:57:37.180Z,97672.36
2023-08-29T23:00:54.047Z,97676.39
2023-08-29T23:04:11.121Z,97678.84
2023-08-29T23:07:29.889Z,97688.25
2023-08-29T23:10:45.167Z,97687.45
2023-08-29T23:14:01.874Z,97679.91
2023-08-29T23:17:20.322Z,97676.66
2023-08-29T23:20:37.028Z,97662.39
2023-08-29T23:23:55.242Z,97672.34
2023-08-29T23:27:12.024Z,97671.55
2023-08-29T23:30:29.937Z,97676.14
2023-08-29T23:33:56.526Z,97670.74
2023-08-29T23:37:13.347Z,97665.92
2023-08-29T23:40:29.957Z,97668.90
2023-08-29T23:43:46.615Z,97672.40
2023-08-29T23:47:03.257Z,97683.19
2023-08-29T23:50:20.774Z,97685.62
2023-08-29T23:53:37.417Z,97684.80
2023-08-29T23:56:54.171Z,97688.84
